createdAt,value
2022-10-02T00:00:11.288Z,68.68
2022-10-02T00:02:50.883Z,67.88
2022-10-02T00:05:39.565Z,67.96
2022-10-02T00:08:20.774Z,67.71
2022-10-02T00:11:21.232Z,68.00
2022-10-02T00:13:59.245Z,67.85
2022-10-02T00:16:34.048Z,68.42
2022-10-02T00:19:01.773Z,68.28
2022-10-02T00:21:37.583Z,68.19
2022-10-02T00:24:08.871Z,68.38
2022-10-02T00:26:54.051Z,67.68
2022-10-02T00:29:45.156Z,67.38
2022-10-02T00:32:26.366Z,67.65
2022-10-02T00:35:27.707Z,67.57
2022-10-02T00:38:20.249Z,67.51
2022-10-02T00:41:30.355Z,67.27
2022-10-02T00:44:28.306Z,67.56
2022-10-02T00:47:18.447Z,67.55
2022-10-02T00:50:32.556Z,67.60
2022-10-02T00:53:15.096Z,67.28
2022-10-02T00:56:01.151Z,67.27
2022-10-02T00:58:49.016Z,67.21
2022-10-02T01:01:24.142Z,67.02
2022-10-02T01:03:54.581Z,67.00
2022-10-02T01:06:25.817Z,67.12
2022-10-02T01:08:53.239Z,67.33
2022-10-02T01:11:22.817Z,67.32
2022-10-02T01:13:50.329Z,67.35
2022-10-02T01:16:18.291Z,67.35
2022-10-02T01:18:47.975Z,67.18
2022-10-02T01:21:29.556Z,67.12
2022-10-02T01:24:10.323Z,67.26
2022-10-02T01:26:37.810Z,67.56
2022-10-02T01:29:06.396Z,67.30
2022-10-02T01:31:36.442Z,67.28
2022-10-02T01:34:04.240Z,67.28
2022-10-02T01:36:31.169Z,67.38
2022-10-02T01:38:58.944Z,67.51
2022-10-02T01:41:26.774Z,67.02
2022-10-02T01:44:01.637Z,67.15
2022-10-02T01:46:52.764Z,67.13
2022-10-02T01:50:08.140Z,66.96
2022-10-02T01:52:53.717Z,67.17
2022-10-02T01:55:57.558Z,67.23
2022-10-02T01:59:15.204Z,67.22
2022-10-02T02:02:20.310Z,67.20
2022-10-02T02:05:05.612Z,67.12
2022-10-02T02:07:50.420Z,67.41
2022-10-02T02:10:26.208Z,67.58
2022-10-02T02:13:14.333Z,67.38
2022-10-02T02:15:52.705Z,67.41
2022-10-02T02:18:49.373Z,67.62
2022-10-02T02:21:25.436Z,67.35
2022-10-02T02:23:55.148Z,67.29
2022-10-02T02:26:25.189Z,67.43
2022-10-02T02:29:00.983Z,67.35
2022-10-02T02:31:37.209Z,67.23
2022-10-02T02:34:11.264Z,67.49
2022-10-02T02:36:46.762Z,67.35
2022-10-02T02:39:22.823Z,67.38
2022-10-02T02:41:56.269Z,67.18
2022-10-02T02:44:36.566Z,67.04
2022-10-02T02:47:12.760Z,67.20
2022-10-02T02:50:01.416Z,66.97
2022-10-02T02:52:38.045Z,67.02
2022-10-02T02:55:18.215Z,67.49
2022-10-02T02:58:08.064Z,67.24
2022-10-02T03:00:35.240Z,67.18
2022-10-02T03:03:02.273Z,67.27
2022-10-02T03:05:29.905Z,67.23
2022-10-02T03:08:31.780Z,67.04
2022-10-02T03:11:34.032Z,67.04
2022-10-02T03:14:22.483Z,67.15
2022-10-02T03:17:01.088Z,67.25
2022-10-02T03:20:08.147Z,67.16
2022-10-02T03:22:46.196Z,67.03
2022-10-02T03:25:23.384Z,66.85
2022-10-02T03:28:07.711Z,66.89
2022-10-02T03:30:37.013Z,66.94
2022-10-02T03:33:06.165Z,67.16
2022-10-02T03:35:33.752Z,66.90
2022-10-02T03:38:06.760Z,66.88
2022-10-02T03:40:34.383Z,66.82
2022-10-02T03:43:02.236Z,66.84
2022-10-02T03:45:52.194Z,66.75
2022-10-02T03:48:18.277Z,66.65
2022-10-02T03:50:46.314Z,67.00
2022-10-02T03:53:21.954Z,66.87
2022-10-02T03:55:57.993Z,67.08
2022-10-02T03:58:26.322Z,67.23
2022-10-02T04:01:06.230Z,66.94
2022-10-02T04:03:50.235Z,67.15
2022-10-02T04:06:40.670Z,67.21
2022-10-02T04:09:13.704Z,67.34
2022-10-02T04:11:46.761Z,67.28
2022-10-02T04:14:36.950Z,67.01
2022-10-02T04:17:25.673Z,67.03
2022-10-02T04:20:23.141Z,67.17
2022-10-02T04:22:57.635Z,66.76
2022-10-02T04:25:40.049Z,67.10
2022-10-02T04:28:15.059Z,67.06
2022-10-02T04:30:42.626Z,66.99
2022-10-02T04:33:15.983Z,66.87
2022-10-02T04:36:30.030Z,66.83
2022-10-02T04:39:18.083Z,67.12
2022-10-02T04:41:59.900Z,67.11
2022-10-02T04:45:02.587Z,67.20
2022-10-02T04:47:37.950Z,67.32
2022-10-02T04:50:27.230Z,67.27
2022-10-02T04:53:37.942Z,67.17
2022-10-02T04:56:18.249Z,67.08
2022-10-02T04:59:13.338Z,67.08
2022-10-02T05:01:55.442Z,67.07
2022-10-02T05:05:33.704Z,67.00
2022-10-02T05:08:30.346Z,66.96
2022-10-02T05:11:07.909Z,66.94
2022-10-02T05:13:55.066Z,67.11
2022-10-02T05:16:33.774Z,67.00
2022-10-02T05:19:09.099Z,66.94
2022-10-02T05:21:54.662Z,66.99
2022-10-02T05:24:28.078Z,66.99
2022-10-02T05:26:55.147Z,66.75
2022-10-02T05:30:02.587Z,66.89
2022-10-02T05:32:32.621Z,67.04
2022-10-02T05:35:15.883Z,66.87
2022-10-02T05:38:03.922Z,66.93
2022-10-02T05:41:04.510Z,67.15
2022-10-02T05:43:53.957Z,67.14
2022-10-02T05:46:29.675Z,67.18
2022-10-02T05:49:28.179Z,67.08
2022-10-02T05:52:05.588Z,67.31
2022-10-02T05:55:00.175Z,67.02
2022-10-02T05:57:52.618Z,67.00
2022-10-02T06:00:36.518Z,66.75
2022-10-02T06:03:15.537Z,66.55
2022-10-02T06:06:10.820Z,66.83
2022-10-02T06:08:58.853Z,67.11
2022-10-02T06:11:34.049Z,66.56
2022-10-02T06:14:37.297Z,66.86
2022-10-02T06:17:26.466Z,66.35
2022-10-02T06:20:21.496Z,66.73
2022-10-02T06:23:13.532Z,66.69
2022-10-02T06:25:47.173Z,66.93
2022-10-02T06:28:36.568Z,66.91
2022-10-02T07:13:11.888Z,76.18
2022-10-02T07:16:07.071Z,75.45
2022-10-02T07:22:45.672Z,71.87
2022-10-02T07:25:41.849Z,71.30
2022-10-02T07:28:31.617Z,70.04
2022-10-02T07:31:14.055Z,69.43
2022-10-02T07:34:06.761Z,68.52
2022-10-02T07:37:09.043Z,68.37
2022-10-02T07:39:55.696Z,67.70
2022-10-02T07:42:41.867Z,67.71
2022-10-02T07:45:39.810Z,67.42
2022-10-02T07:48:57.632Z,67.29
2022-10-02T07:51:55.062Z,66.71
2022-10-02T07:54:41.096Z,66.63
2022-10-02T07:57:28.237Z,66.33
2022-10-02T08:00:19.648Z,65.59
2022-10-02T08:03:10.717Z,65.68
2022-10-02T08:05:58.466Z,64.38
2022-10-02T08:09:17.319Z,64.51
2022-10-02T08:11:59.886Z,63.80
2022-10-02T08:14:48.901Z,63.39
2022-10-02T08:17:40.938Z,63.59
2022-10-02T08:20:30.294Z,63.78
2022-10-02T08:23:40.106Z,63.40
2022-10-02T08:26:36.132Z,62.96
2022-10-02T08:29:06.622Z,63.30
2022-10-02T08:31:34.247Z,62.61
2022-10-02T08:34:19.747Z,61.65
2022-10-02T08:37:25.108Z,62.48
2022-10-02T08:39:58.881Z,61.76
2022-10-02T08:42:55.581Z,61.85
2022-10-02T08:46:17.063Z,62.03
2022-10-02T08:49:32.310Z,61.30
2022-10-02T08:52:17.663Z,60.36
2022-10-02T08:55:17.422Z,60.01
2022-10-02T08:58:28.125Z,61.01
2022-10-02T09:01:09.947Z,60.08
2022-10-02T09:04:21.845Z,60.01
2022-10-02T09:07:16.522Z,60.31
2022-10-02T09:09:46.679Z,61.21
2022-10-02T09:13:05.020Z,61.04
2022-10-02T09:16:08.547Z,59.70
2022-10-02T09:19:03.757Z,58.81
2022-10-02T09:22:17.054Z,58.86
2022-10-02T09:25:24.358Z,59.25
2022-10-02T09:28:52.156Z,59.22
2022-10-02T09:31:31.476Z,58.72
2022-10-02T09:34:29.010Z,58.31
2022-10-02T09:37:10.718Z,57.96
2022-10-02T09:40:21.049Z,58.90
2022-10-02T09:43:37.998Z,58.37
2022-10-02T09:46:31.018Z,59.09
2022-10-02T09:49:34.896Z,58.68
2022-10-02T09:52:21.349Z,56.33
2022-10-02T09:55:36.907Z,55.06
2022-10-02T09:58:48.859Z,55.02
2022-10-02T10:01:50.115Z,56.09
2022-10-02T10:05:07.226Z,56.44
